sensor_id;sensor_type;location;lat;lon;timestamp;temperature;humidity
20068;DHT22;10194;50.824;7.134;2022-09-27T00:00:43;11.20;99.90
20068;DHT22;10194;50.824;7.134;2022-09-27T00:03:10;11.20;99.90
20068;DHT22;10194;50.824;7.134;2022-09-27T00:05:36;11.20;99.90
20068;DHT22;10194;50.824;7.134;2022-09-27T00:08:02;11.20;99.90
20068;DHT22;10194;50.824;7.134;2022-09-27T00:10:29;11.10;99.90
20068;DHT22;10194;50.824;7.134;2022-09-27T00:12:55;11.10;99.90
20068;DHT22;10194;50.824;7.134;2022-09-27T00:15:22;11.10;99.90
20068;DHT22;10194;50.824;7.134;2022-09-27T00:17:48;11.10;99.90
20068;DHT22;10194;50.824;7.134;2022-09-27T00:20:18;11.10;99.90
20068;DHT22;10194;50.824;7.134;2022-09-27T00:22:46;11.20;99.90
20068;DHT22;10194;50.824;7.134;2022-09-27T00:25:13;11.20;99.90
20068;DHT22;10194;50.824;7.134;2022-09-27T00:27:39;11.20;99.90
20068;DHT22;10194;50.824;7.134;2022-09-27T00:30:05;11.10;99.90
20068;DHT22;10194;50.824;7.134;2022-09-27T00:32:31;11.10;99.90
20068;DHT22;10194;50.824;7.134;2022-09-27T00:34:57;11.10;99.90
20068;DHT22;10194;50.824;7.134;2022-09-27T00:37:23;11.10;99.90
20068;DHT22;10194;50.824;7.134;2022-09-27T00:39:50;11.10;99.90
20068;DHT22;10194;50.824;7.134;2022-09-27T00:42:16;11.00;99.90
20068;DHT22;10194;50.824;7.134;2022-09-27T00:44:58;11.00;99.90
20068;DHT22;10194;50.824;7.134;2022-09-27T00:47:40;11.00;99.90
20068;DHT22;10194;50.824;7.134;2022-09-27T00:50:25;11.00;99.90
20068;DHT22;10194;50.824;7.134;2022-09-27T00:53:23;10.90;99.90
20068;DHT22;10194;50.824;7.134;2022-09-27T00:55:59;11.00;99.90
20068;DHT22;10194;50.824;7.134;2022-09-27T00:58:34;10.90;99.90
20068;DHT22;10194;50.824;7.134;2022-09-27T01:01:05;10.90;99.90
20068;DHT22;10194;50.824;7.134;2022-09-27T01:06:12;10.90;99.90
20068;DHT22;10194;50.824;7.134;2022-09-27T01:08:39;10.90;99.90
20068;DHT22;10194;50.824;7.134;2022-09-27T01:11:34;10.90;99.90
20068;DHT22;10194;50.824;7.134;2022-09-27T01:17:50;11.00;99.90
20068;DHT22;10194;50.824;7.134;2022-09-27T01:29:33;10.90;99.90
20068;DHT22;10194;50.824;7.134;2022-09-27T01:32:26;10.80;99.90
20068;DHT22;10194;50.824;7.134;2022-09-27T01:40:58;10.80;99.90
20068;DHT22;10194;50.824;7.134;2022-09-27T01:46:40;10.80;99.90
20068;DHT22;10194;50.824;7.134;2022-09-27T01:49:15;10.70;99.90
20068;DHT22;10194;50.824;7.134;2022-09-27T01:51:54;10.70;99.90
20068;DHT22;10194;50.824;7.134;2022-09-27T01:54:30;10.70;99.90
20068;DHT22;10194;50.824;7.134;2022-09-27T01:57:06;10.70;99.90
20068;DHT22;10194;50.824;7.134;2022-09-27T01:59:46;10.70;99.90
20068;DHT22;10194;50.824;7.134;2022-09-27T02:02:17;10.70;99.90
20068;DHT22;10194;50.824;7.134;2022-09-27T02:04:47;10.60;99.90
20068;DHT22;10194;50.824;7.134;2022-09-27T02:07:21;10.60;99.90
20068;DHT22;10194;50.824;7.134;2022-09-27T02:09:53;10.70;99.90
20068;DHT22;10194;50.824;7.134;2022-09-27T02:12:26;10.60;99.90
20068;DHT22;10194;50.824;7.134;2022-09-27T02:15:03;10.70;99.90
20068;DHT22;10194;50.824;7.134;2022-09-27T02:17:58;10.70;99.90
20068;DHT22;10194;50.824;7.134;2022-09-27T02:20:30;10.70;99.90
20068;DHT22;10194;50.824;7.134;2022-09-27T02:25:55;10.70;99.90
20068;DHT22;10194;50.824;7.134;2022-09-27T02:31:07;10.70;99.90
20068;DHT22;10194;50.824;7.134;2022-09-27T02:33:38;10.60;99.90
20068;DHT22;10194;50.824;7.134;2022-09-27T02:36:06;10.70;99.90
20068;DHT22;10194;50.824;7.134;2022-09-27T02:38:34;10.70;99.90
20068;DHT22;10194;50.824;7.134;2022-09-27T02:40:59;10.70;99.90
20068;DHT22;10194;50.824;7.134;2022-09-27T02:43:30;10.70;99.90
20068;DHT22;10194;50.824;7.134;2022-09-27T02:46:18;10.70;99.90
20068;DHT22;10194;50.824;7.134;2022-09-27T02:49:09;10.60;99.90
20068;DHT22;10194;50.824;7.134;2022-09-27T03:00:20;10.60;99.90
20068;DHT22;10194;50.824;7.134;2022-09-27T03:03:26;10.60;99.90
20068;DHT22;10194;50.824;7.134;2022-09-27T03:06:04;10.60;99.90
20068;DHT22;10194;50.824;7.134;2022-09-27T03:08:32;10.60;99.90
20068;DHT22;10194;50.824;7.134;2022-09-27T03:10:58;10.50;99.90
20068;DHT22;10194;50.824;7.134;2022-09-27T03:13:24;10.50;99.90
20068;DHT22;10194;50.824;7.134;2022-09-27T03:15:50;10.50;99.90
20068;DHT22;10194;50.824;7.134;2022-09-27T03:18:16;10.50;99.90
20068;DHT22;10194;50.824;7.134;2022-09-27T03:20:42;10.50;99.90
20068;DHT22;10194;50.824;7.134;2022-09-27T03:23:08;10.50;99.90
20068;DHT22;10194;50.824;7.134;2022-09-27T03:25:33;10.50;99.90
20068;DHT22;10194;50.824;7.134;2022-09-27T03:27:59;10.50;99.90
20068;DHT22;10194;50.824;7.134;2022-09-27T03:30:25;10.60;99.90
20068;DHT22;10194;50.824;7.134;2022-09-27T03:32:51;10.50;99.90
20068;DHT22;10194;50.824;7.134;2022-09-27T03:35:17;10.50;99.90
20068;DHT22;10194;50.824;7.134;2022-09-27T03:37:42;10.50;99.90
20068;DHT22;10194;50.824;7.134;2022-09-27T03:40:09;10.50;99.90
20068;DHT22;10194;50.824;7.134;2022-09-27T03:42:35;10.50;99.90
20068;DHT22;10194;50.824;7.134;2022-09-27T03:45:02;10.50;99.90
20068;DHT22;10194;50.824;7.134;2022-09-27T03:47:28;10.50;99.90
20068;DHT22;10194;50.824;7.134;2022-09-27T03:49:54;10.50;99.90
20068;DHT22;10194;50.824;7.134;2022-09-27T03:52:20;10.50;99.90
20068;DHT22;10194;50.824;7.134;2022-09-27T03:54:46;10.50;99.90
20068;DHT22;10194;50.824;7.134;2022-09-27T03:57:12;10.50;99.90
20068;DHT22;10194;50.824;7.134;2022-09-27T03:59:38;10.40;99.90
20068;DHT22;10194;50.824;7.134;2022-09-27T04:02:04;10.30;99.90
20068;DHT22;10194;50.824;7.134;2022-09-27T04:04:30;10.30;99.90
20068;DHT22;10194;50.824;7.134;2022-09-27T04:06:56;10.30;99.90
20068;DHT22;10194;50.824;7.134;2022-09-27T04:09:23;10.30;99.90
20068;DHT22;10194;50.824;7.134;2022-09-27T04:11:49;10.30;99.90
20068;DHT22;10194;50.824;7.134;2022-09-27T04:14:15;10.40;99.90
20068;DHT22;10194;50.824;7.134;2022-09-27T04:16:41;10.40;99.90
20068;DHT22;10194;50.824;7.134;2022-09-27T04:19:07;10.30;99.90
20068;DHT22;10194;50.824;7.134;2022-09-27T04:21:34;10.20;99.90
20068;DHT22;10194;50.824;7.134;2022-09-27T04:24:00;10.20;99.90
20068;DHT22;10194;50.824;7.134;2022-09-27T04:26:26;10.20;99.90
20068;DHT22;10194;50.824;7.134;2022-09-27T04:28:52;10.10;99.90
20068;DHT22;10194;50.824;7.134;2022-09-27T04:31:19;10.00;99.90
20068;DHT22;10194;50.824;7.134;2022-09-27T04:33:44;10.00;99.90
20068;DHT22;10194;50.824;7.134;2022-09-27T04:36:18;10.00;99.90
20068;DHT22;10194;50.824;7.134;2022-09-27T04:38:54;10.00;99.90
20068;DHT22;10194;50.824;7.134;2022-09-27T04:41:22;10.00;99.90
20068;DHT22;10194;50.824;7.134;2022-09-27T04:43:51;10.00;99.90
20068;DHT22;10194;50.824;7.134;2022-09-27T04:46:18;10.00;99.90
20068;DHT22;10194;50.824;7.134;2022-09-27T04:48:46;10.00;99.90
20068;DHT22;10194;50.824;7.134;2022-09-27T04:51:12;10.00;99.90
20068;DHT22;10194;50.824;7.134;2022-09-27T04:53:42;9.90;99.90
20068;DHT22;10194;50.824;7.134;2022-09-27T04:56:09;9.90;99.90
20068;DHT22;10194;50.824;7.134;2022-09-27T04:58:35;9.90;99.90
20068;DHT22;10194;50.824;7.134;2022-09-27T05:01:02;10.00;99.90
20068;DHT22;10194;50.824;7.134;2022-09-27T05:03:32;9.90;99.90
20068;DHT22;10194;50.824;7.134;2022-09-27T05:05:58;9.90;99.90
20068;DHT22;10194;50.824;7.134;2022-09-27T05:08:25;9.90;99.90
20068;DHT22;10194;50.824;7.134;2022-09-27T05:10:52;9.90;99.90
20068;DHT22;10194;50.824;7.134;2022-09-27T05:13:20;9.90;99.90
20068;DHT22;10194;50.824;7.134;2022-09-27T05:15:46;9.90;99.90
20068;DHT22;10194;50.824;7.134;2022-09-27T05:18:12;9.90;99.90
20068;DHT22;10194;50.824;7.134;2022-09-27T05:20:38;9.90;99.90
20068;DHT22;10194;50.824;7.134;2022-09-27T05:23:04;9.80;99.90
20068;DHT22;10194;50.824;7.134;2022-09-27T05:25:31;9.80;99.90
20068;DHT22;10194;50.824;7.134;2022-09-27T05:27:57;9.80;99.90
20068;DHT22;10194;50.824;7.134;2022-09-27T05:30:24;9.80;99.90
20068;DHT22;10194;50.824;7.134;2022-09-27T05:32:50;9.80;99.90
20068;DHT22;10194;50.824;7.134;2022-09-27T05:35:17;9.80;99.90
20068;DHT22;10194;50.824;7.134;2022-09-27T05:37:57;9.80;99.90
20068;DHT22;10194;50.824;7.134;2022-09-27T05:40:25;9.80;99.90
20068;DHT22;10194;50.824;7.134;2022-09-27T05:42:52;9.70;99.90
20068;DHT22;10194;50.824;7.134;2022-09-27T05:45:19;9.80;99.90
20068;DHT22;10194;50.824;7.134;2022-09-27T05:47:54;9.80;99.90
20068;DHT22;10194;50.824;7.134;2022-09-27T05:50:21;9.80;99.90
20068;DHT22;10194;50.824;7.134;2022-09-27T05:52:48;9.80;99.90
20068;DHT22;10194;50.824;7.134;2022-09-27T05:55:14;9.80;99.90
20068;DHT22;10194;50.824;7.134;2022-09-27T05:57:40;9.80;99.90
20068;DHT22;10194;50.824;7.134;2022-09-27T06:00:07;9.90;99.90
20068;DHT22;10194;50.824;7.134;2022-09-27T06:02:34;9.80;99.90
20068;DHT22;10194;50.824;7.134;2022-09-27T06:05:00;9.90;99.90
20068;DHT22;10194;50.824;7.134;2022-09-27T06:07:29;9.90;99.90
20068;DHT22;10194;50.824;7.134;2022-09-27T06:09:56;9.90;99.90
20068;DHT22;10194;50.824;7.134;2022-09-27T06:12:22;9.90;99.90
20068;DHT22;10194;50.824;7.134;2022-09-27T06:14:48;10.00;99.90
20068;DHT22;10194;50.824;7.134;2022-09-27T06:17:14;10.10;99.90
20068;DHT22;10194;50.824;7.134;2022-09-27T06:19:39;10.20;99.90
20068;DHT22;10194;50.824;7.134;2022-09-27T06:22:05;10.20;99.90
20068;DHT22;10194;50.824;7.134;2022-09-27T06:24:31;10.00;99.90
20068;DHT22;10194;50.824;7.134;2022-09-27T06:26:57;10.10;99.90
20068;DHT22;10194;50.824;7.134;2022-09-27T06:29:22;10.10;99.90
20068;DHT22;10194;50.824;7.134;2022-09-27T06:31:48;10.20;99.90
20068;DHT22;10194;50.824;7.134;2022-09-27T06:34:14;10.20;99.90
20068;DHT22;10194;50.824;7.134;2022-09-27T06:36:40;10.20;99.90
20068;DHT22;10194;50.824;7.134;2022-09-27T06:39:07;10.20;99.90
20068;DHT22;10194;50.824;7.134;2022-09-27T06:41:33;10.40;99.90
20068;DHT22;10194;50.824;7.134;2022-09-27T06:44:00;10.30;99.90
20068;DHT22;10194;50.824;7.134;2022-09-27T06:46:26;10.40;99.90
20068;DHT22;10194;50.824;7.134;2022-09-27T06:48:52;10.60;99.90
20068;DHT22;10194;50.824;7.134;2022-09-27T06:51:19;10.70;99.90
20068;DHT22;10194;50.824;7.134;2022-09-27T06:53:45;10.90;99.90
20068;DHT22;10194;50.824;7.134;2022-09-27T06:56:10;11.00;99.90
20068;DHT22;10194;50.824;7.134;2022-09-27T06:58:36;11.00;99.90
20068;DHT22;10194;50.824;7.134;2022-09-27T07:01:20;11.40;99.90
20068;DHT22;10194;50.824;7.134;2022-09-27T07:03:49;11.30;99.90
20068;DHT22;10194;50.824;7.134;2022-09-27T07:06:20;11.10;99.90
20068;DHT22;10194;50.824;7.134;2022-09-27T07:08:49;11.00;99.90
20068;DHT22;10194;50.824;7.134;2022-09-27T07:11:19;10.90;99.90
20068;DHT22;10194;50.824;7.134;2022-09-27T07:13:46;10.80;99.90
20068;DHT22;10194;50.824;7.134;2022-09-27T07:16:15;10.80;99.90
20068;DHT22;10194;50.824;7.134;2022-09-27T07:18:41;10.90;99.90
20068;DHT22;10194;50.824;7.134;2022-09-27T07:21:07;10.90;99.90
20068;DHT22;10194;50.824;7.134;2022-09-27T07:23:35;10.80;99.90
20068;DHT22;10194;50.824;7.134;2022-09-27T07:26:02;10.80;99.90
20068;DHT22;10194;50.824;7.134;2022-09-27T07:28:29;10.80;99.90
20068;DHT22;10194;50.824;7.134;2022-09-27T07:30:56;10.80;99.90
20068;DHT22;10194;50.824;7.134;2022-09-27T07:33:22;10.80;99.90
20068;DHT22;10194;50.824;7.134;2022-09-27T07:35:48;10.80;99.90
20068;DHT22;10194;50.824;7.134;2022-09-27T07:38:14;11.00;99.90
20068;DHT22;10194;50.824;7.134;2022-09-27T07:40:41;11.00;99.90
20068;DHT22;10194;50.824;7.134;2022-09-27T07:43:07;11.10;99.90
20068;DHT22;10194;50.824;7.134;2022-09-27T07:45:34;11.10;99.90
20068;DHT22;10194;50.824;7.134;2022-09-27T07:48:03;11.30;99.90
20068;DHT22;10194;50.824;7.134;2022-09-27T07:50:30;11.20;99.90
20068;DHT22;10194;50.824;7.134;2022-09-27T07:52:56;11.10;99.90
20068;DHT22;10194;50.824;7.134;2022-09-27T07:55:22;11.20;99.90
20068;DHT22;10194;50.824;7.134;2022-09-27T07:57:48;11.30;99.90
20068;DHT22;10194;50.824;7.134;2022-09-27T08:00:16;11.30;99.90
20068;DHT22;10194;50.824;7.134;2022-09-27T08:02:44;11.20;99.90
20068;DHT22;10194;50.824;7.134;2022-09-27T08:05:11;11.10;99.90
20068;DHT22;10194;50.824;7.134;2022-09-27T08:07:38;11.10;99.90
20068;DHT22;10194;50.824;7.134;2022-09-27T08:10:06;11.10;99.90
20068;DHT22;10194;50.824;7.134;2022-09-27T08:12:33;11.10;99.90
20068;DHT22;10194;50.824;7.134;2022-09-27T08:14:59;11.20;99.90
20068;DHT22;10194;50.824;7.134;2022-09-27T08:17:30;11.20;99.90
20068;DHT22;10194;50.824;7.134;2022-09-27T08:19:56;11.30;99.90
20068;DHT22;10194;50.824;7.134;2022-09-27T08:22:22;11.40;99.90
20068;DHT22;10194;50.824;7.134;2022-09-27T08:24:48;11.50;99.90
20068;DHT22;10194;50.824;7.134;2022-09-27T08:27:15;11.50;99.90
20068;DHT22;10194;50.824;7.134;2022-09-27T08:29:41;11.60;99.90
20068;DHT22;10194;50.824;7.134;2022-09-27T08:32:08;11.50;99.90
20068;DHT22;10194;50.824;7.134;2022-09-27T08:34:35;11.40;99.90
20068;DHT22;10194;50.824;7.134;2022-09-27T08:37:01;11.30;99.90
20068;DHT22;10194;50.824;7.134;2022-09-27T08:39:27;11.30;99.90
20068;DHT22;10194;50.824;7.134;2022-09-27T08:42:18;11.40;99.90
20068;DHT22;10194;50.824;7.134;2022-09-27T08:47:26;11.10;99.90
20068;DHT22;10194;50.824;7.134;2022-09-27T08:50:03;11.20;99.90
20068;DHT22;10194;50.824;7.134;2022-09-27T08:52:46;11.20;99.90
20068;DHT22;10194;50.824;7.134;2022-09-27T08:55:23;11.20;99.90
20068;DHT22;10194;50.824;7.134;2022-09-27T08:57:56;11.20;99.90
20068;DHT22;10194;50.824;7.134;2022-09-27T09:00:23;11.20;99.90
20068;DHT22;10194;50.824;7.134;2022-09-27T09:02:50;11.20;99.90
20068;DHT22;10194;50.824;7.134;2022-09-27T09:05:33;11.30;99.90
20068;DHT22;10194;50.824;7.134;2022-09-27T09:08:24;11.20;99.90
20068;DHT22;10194;50.824;7.134;2022-09-27T09:11:08;11.30;99.90
20068;DHT22;10194;50.824;7.134;2022-09-27T09:26:21;11.80;99.90
20068;DHT22;10194;50.824;7.134;2022-09-27T09:35:10;12.40;99.90
20068;DHT22;10194;50.824;7.134;2022-09-27T09:37:39;12.40;99.90
20068;DHT22;10194;50.824;7.134;2022-09-27T09:40:31;12.50;99.90
20068;DHT22;10194;50.824;7.134;2022-09-27T09:45:52;12.70;99.90
20068;DHT22;10194;50.824;7.134;2022-09-27T09:48:41;12.70;99.90
20068;DHT22;10194;50.824;7.134;2022-09-27T09:51:19;12.70;99.90
20068;DHT22;10194;50.824;7.134;2022-09-27T09:54:03;12.70;99.90
20068;DHT22;10194;50.824;7.134;2022-09-27T09:57:17;12.70;99.90
20068;DHT22;10194;50.824;7.134;2022-09-27T09:59:59;12.70;99.90
20068;DHT22;10194;50.824;7.134;2022-09-27T10:02:41;12.70;99.90
20068;DHT22;10194;50.824;7.134;2022-09-27T10:05:20;12.60;99.90
20068;DHT22;10194;50.824;7.134;2022-09-27T10:07:50;12.50;99.90
20068;DHT22;10194;50.824;7.134;2022-09-27T10:10:19;12.50;99.90
20068;DHT22;10194;50.824;7.134;2022-09-27T10:12:46;12.60;99.90
20068;DHT22;10194;50.824;7.134;2022-09-27T10:15:23;12.60;99.90
20068;DHT22;10194;50.824;7.134;2022-09-27T10:17:53;12.60;99.90
20068;DHT22;10194;50.824;7.134;2022-09-27T10:20:41;12.60;99.90
20068;DHT22;10194;50.824;7.134;2022-09-27T10:23:18;12.50;99.90
20068;DHT22;10194;50.824;7.134;2022-09-27T10:25:54;12.50;99.90
20068;DHT22;10194;50.824;7.134;2022-09-27T10:28:36;12.50;99.90
20068;DHT22;10194;50.824;7.134;2022-09-27T10:31:06;12.50;99.90
20068;DHT22;10194;50.824;7.134;2022-09-27T10:33:59;12.60;99.90
20068;DHT22;10194;50.824;7.134;2022-09-27T10:36:29;12.50;99.90
20068;DHT22;10194;50.824;7.134;2022-09-27T10:39:01;12.50;99.90
20068;DHT22;10194;50.824;7.134;2022-09-27T10:41:37;12.50;99.90
20068;DHT22;10194;50.824;7.134;2022-09-27T10:46:45;12.90;99.90
20068;DHT22;10194;50.824;7.134;2022-09-27T10:49:29;13.00;99.90
20068;DHT22;10194;50.824;7.134;2022-09-27T10:52:02;13.10;99.90
20068;DHT22;10194;50.824;7.134;2022-09-27T10:54:36;13.20;99.90
20068;DHT22;10194;50.824;7.134;2022-09-27T10:57:23;13.20;99.90
20068;DHT22;10194;50.824;7.134;2022-09-27T11:00:01;13.10;99.90
20068;DHT22;10194;50.824;7.134;2022-09-27T11:02:33;13.10;99.90
20068;DHT22;10194;50.824;7.134;2022-09-27T11:05:27;13.10;99.90
20068;DHT22;10194;50.824;7.134;2022-09-27T11:07:58;13.00;99.90
20068;DHT22;10194;50.824;7.134;2022-09-27T11:10:35;13.10;99.90
20068;DHT22;10194;50.824;7.134;2022-09-27T11:13:13;13.20;99.90
20068;DHT22;10194;50.824;7.134;2022-09-27T11:19:16;13.30;99.90
20068;DHT22;10194;50.824;7.134;2022-09-27T11:25:33;13.20;99.90
20068;DHT22;10194;50.824;7.134;2022-09-27T11:37:29;13.10;99.90
20068;DHT22;10194;50.824;7.134;2022-09-27T11:52:37;13.20;99.90
20068;DHT22;10194;50.824;7.134;2022-09-27T11:58:03;13.10;99.90
20068;DHT22;10194;50.824;7.134;2022-09-27T12:06:51;13.60;99.90
20068;DHT22;10194;50.824;7.134;2022-09-27T12:09:29;13.50;99.90
20068;DHT22;10194;50.824;7.134;2022-09-27T12:12:27;13.60;99.90
20068;DHT22;10194;50.824;7.134;2022-09-27T12:14:56;13.50;99.90
20068;DHT22;10194;50.824;7.134;2022-09-27T12:17:28;13.50;99.90
20068;DHT22;10194;50.824;7.134;2022-09-27T12:20:02;13.50;99.90
20068;DHT22;10194;50.824;7.134;2022-09-27T12:22:56;13.40;99.90
20068;DHT22;10194;50.824;7.134;2022-09-27T12:25:30;13.30;99.90
20068;DHT22;10194;50.824;7.134;2022-09-27T12:28:11;13.20;99.90
20068;DHT22;10194;50.824;7.134;2022-09-27T12:30:48;13.00;99.90
20068;DHT22;10194;50.824;7.134;2022-09-27T12:33:30;13.00;99.90
20068;DHT22;10194;50.824;7.134;2022-09-27T12:36:05;12.90;99.90
20068;DHT22;10194;50.824;7.134;2022-09-27T12:38:59;12.90;99.90
20068;DHT22;10194;50.824;7.134;2022-09-27T12:41:33;12.90;99.90
20068;DHT22;10194;50.824;7.134;2022-09-27T12:44:01;12.80;99.90
20068;DHT22;10194;50.824;7.134;2022-09-27T12:52:50;12.60;99.90
20068;DHT22;10194;50.824;7.134;2022-09-27T13:04:10;12.20;99.90
20068;DHT22;10194;50.824;7.134;2022-09-27T13:12:22;12.30;99.90
20068;DHT22;10194;50.824;7.134;2022-09-27T13:15:12;12.50;99.90
20068;DHT22;10194;50.824;7.134;2022-09-27T13:25:57;12.80;99.90
20068;DHT22;10194;50.824;7.134;2022-09-27T13:33:43;13.20;99.90
20068;DHT22;10194;50.824;7.134;2022-09-27T13:41:53;13.20;99.90
20068;DHT22;10194;50.824;7.134;2022-09-27T13:47:31;12.80;99.90
20068;DHT22;10194;50.824;7.134;2022-09-27T13:50:44;12.90;99.90
20068;DHT22;10194;50.824;7.134;2022-09-27T13:55:51;12.90;99.90
20068;DHT22;10194;50.824;7.134;2022-09-27T14:00:49;12.60;99.90
20068;DHT22;10194;50.824;7.134;2022-09-27T14:03:46;12.30;99.90
20068;DHT22;10194;50.824;7.134;2022-09-27T14:06:20;12.10;99.90
20068;DHT22;10194;50.824;7.134;2022-09-27T14:08:55;11.90;99.90
20068;DHT22;10194;50.824;7.134;2022-09-27T14:11:38;11.90;99.90
20068;DHT22;10194;50.824;7.134;2022-09-27T14:14:07;12.00;99.90
20068;DHT22;10194;50.824;7.134;2022-09-27T14:16:41;12.20;99.90
20068;DHT22;10194;50.824;7.134;2022-09-27T14:19:21;12.40;99.90
20068;DHT22;10194;50.824;7.134;2022-09-27T14:21:50;12.40;99.90
20068;DHT22;10194;50.824;7.134;2022-09-27T14:29:41;12.40;99.90
20068;DHT22;10194;50.824;7.134;2022-09-27T14:32:23;12.50;99.90
20068;DHT22;10194;50.824;7.134;2022-09-27T14:35:13;12.40;99.90
20068;DHT22;10194;50.824;7.134;2022-09-27T14:38:06;12.40;99.90
20068;DHT22;10194;50.824;7.134;2022-09-27T14:43:20;12.30;99.90
20068;DHT22;10194;50.824;7.134;2022-09-27T14:45:47;12.50;99.90
20068;DHT22;10194;50.824;7.134;2022-09-27T14:50:58;12.30;99.90
20068;DHT22;10194;50.824;7.134;2022-09-27T14:53:30;12.30;99.90
20068;DHT22;10194;50.824;7.134;2022-09-27T14:56:01;12.20;99.90
20068;DHT22;10194;50.824;7.134;2022-09-27T14:58:28;12.10;99.90
20068;DHT22;10194;50.824;7.134;2022-09-27T15:00:55;12.20;99.90
20068;DHT22;10194;50.824;7.134;2022-09-27T15:03:31;12.10;99.90
20068;DHT22;10194;50.824;7.134;2022-09-27T15:05:58;12.10;99.90
20068;DHT22;10194;50.824;7.134;2022-09-27T15:08:27;12.20;99.90
20068;DHT22;10194;50.824;7.134;2022-09-27T15:11:02;12.30;99.90
20068;DHT22;10194;50.824;7.134;2022-09-27T15:13:31;12.40;99.90
20068;DHT22;10194;50.824;7.134;2022-09-27T15:15:57;12.30;99.90
20068;DHT22;10194;50.824;7.134;2022-09-27T15:18:31;12.30;99.90
20068;DHT22;10194;50.824;7.134;2022-09-27T15:20:57;12.30;99.90
20068;DHT22;10194;50.824;7.134;2022-09-27T15:23:38;12.20;99.90
20068;DHT22;10194;50.824;7.134;2022-09-27T15:26:38;12.20;99.90
20068;DHT22;10194;50.824;7.134;2022-09-27T15:29:17;12.10;99.90
20068;DHT22;10194;50.824;7.134;2022-09-27T15:32:02;12.30;99.90
20068;DHT22;10194;50.824;7.134;2022-09-27T15:34:30;12.20;99.90
20068;DHT22;10194;50.824;7.134;2022-09-27T15:36:57;12.20;99.90
20068;DHT22;10194;50.824;7.134;2022-09-27T15:39:31;12.10;99.90
20068;DHT22;10194;50.824;7.134;2022-09-27T15:44:52;11.90;99.90
20068;DHT22;10194;50.824;7.134;2022-09-27T15:52:45;11.40;99.90
20068;DHT22;10194;50.824;7.134;2022-09-27T15:55:17;11.40;99.90
20068;DHT22;10194;50.824;7.134;2022-09-27T15:57:47;11.30;99.90
20068;DHT22;10194;50.824;7.134;2022-09-27T16:00:16;11.20;99.90
20068;DHT22;10194;50.824;7.134;2022-09-27T16:02:44;11.20;99.90
20068;DHT22;10194;50.824;7.134;2022-09-27T16:05:10;11.20;99.90
20068;DHT22;10194;50.824;7.134;2022-09-27T16:07:36;10.90;99.90
20068;DHT22;10194;50.824;7.134;2022-09-27T16:10:15;10.90;99.90
20068;DHT22;10194;50.824;7.134;2022-09-27T16:12:43;11.00;99.90
20068;DHT22;10194;50.824;7.134;2022-09-27T16:15:11;11.00;99.90
20068;DHT22;10194;50.824;7.134;2022-09-27T16:17:37;10.90;99.90
20068;DHT22;10194;50.824;7.134;2022-09-27T16:20:05;10.90;99.90
20068;DHT22;10194;50.824;7.134;2022-09-27T16:22:31;10.90;99.90
20068;DHT22;10194;50.824;7.134;2022-09-27T16:24:56;10.90;99.90
20068;DHT22;10194;50.824;7.134;2022-09-27T16:27:25;10.90;99.90
20068;DHT22;10194;50.824;7.134;2022-09-27T16:29:54;11.00;99.90
20068;DHT22;10194;50.824;7.134;2022-09-27T16:32:22;11.00;99.90
20068;DHT22;10194;50.824;7.134;2022-09-27T16:34:49;11.00;99.90
20068;DHT22;10194;50.824;7.134;2022-09-27T16:37:15;10.90;99.90
20068;DHT22;10194;50.824;7.134;2022-09-27T16:39:41;10.90;99.90
20068;DHT22;10194;50.824;7.134;2022-09-27T16:42:06;10.80;99.90
20068;DHT22;10194;50.824;7.134;2022-09-27T16:44:33;10.90;99.90
20068;DHT22;10194;50.824;7.134;2022-09-27T16:47:01;10.90;99.90
20068;DHT22;10194;50.824;7.134;2022-09-27T16:49:28;10.90;99.90
20068;DHT22;10194;50.824;7.134;2022-09-27T16:52:12;10.80;99.90
20068;DHT22;10194;50.824;7.134;2022-09-27T16:54:41;10.80;99.90
20068;DHT22;10194;50.824;7.134;2022-09-27T16:57:07;10.80;99.90
20068;DHT22;10194;50.824;7.134;2022-09-27T16:59:33;10.80;99.90
20068;DHT22;10194;50.824;7.134;2022-09-27T17:01:59;10.60;99.90
20068;DHT22;10194;50.824;7.134;2022-09-27T17:04:26;10.50;99.90
20068;DHT22;10194;50.824;7.134;2022-09-27T17:06:53;10.40;99.90
20068;DHT22;10194;50.824;7.134;2022-09-27T17:09:20;10.40;99.90
20068;DHT22;10194;50.824;7.134;2022-09-27T17:11:46;10.40;99.90
20068;DHT22;10194;50.824;7.134;2022-09-27T17:14:13;10.40;99.90
20068;DHT22;10194;50.824;7.134;2022-09-27T17:16:45;10.30;99.90
20068;DHT22;10194;50.824;7.134;2022-09-27T17:19:12;10.40;99.90
20068;DHT22;10194;50.824;7.134;2022-09-27T17:21:39;10.40;99.90
20068;DHT22;10194;50.824;7.134;2022-09-27T17:24:05;10.40;99.90
20068;DHT22;10194;50.824;7.134;2022-09-27T17:26:31;10.40;99.90
20068;DHT22;10194;50.824;7.134;2022-09-27T17:28:58;10.40;99.90
20068;DHT22;10194;50.824;7.134;2022-09-27T17:31:29;10.30;99.90
20068;DHT22;10194;50.824;7.134;2022-09-27T17:33:57;10.30;99.90
20068;DHT22;10194;50.824;7.134;2022-09-27T17:36:26;10.40;99.90
20068;DHT22;10194;50.824;7.134;2022-09-27T17:38:54;10.40;99.90
20068;DHT22;10194;50.824;7.134;2022-09-27T17:41:23;10.30;99.90
20068;DHT22;10194;50.824;7.134;2022-09-27T17:43:53;10.30;99.90
20068;DHT22;10194;50.824;7.134;2022-09-27T17:46:22;10.40;99.90
20068;DHT22;10194;50.824;7.134;2022-09-27T17:48:49;10.30;99.90
20068;DHT22;10194;50.824;7.134;2022-09-27T17:51:38;10.20;99.90
20068;DHT22;10194;50.824;7.134;2022-09-27T17:54:07;10.10;99.90
20068;DHT22;10194;50.824;7.134;2022-09-27T17:56:37;10.20;99.90
20068;DHT22;10194;50.824;7.134;2022-09-27T17:59:05;10.20;99.90
20068;DHT22;10194;50.824;7.134;2022-09-27T18:01:31;10.10;99.90
20068;DHT22;10194;50.824;7.134;2022-09-27T18:03:59;10.10;99.90
20068;DHT22;10194;50.824;7.134;2022-09-27T18:06:26;10.20;99.90
20068;DHT22;10194;50.824;7.134;2022-09-27T18:08:55;10.20;99.90
20068;DHT22;10194;50.824;7.134;2022-09-27T18:11:24;10.10;99.90
20068;DHT22;10194;50.824;7.134;2022-09-27T18:13:55;10.10;99.90
20068;DHT22;10194;50.824;7.134;2022-09-27T18:16:30;10.00;99.90
20068;DHT22;10194;50.824;7.134;2022-09-27T18:19:02;10.00;99.90
20068;DHT22;10194;50.824;7.134;2022-09-27T18:21:30;10.00;99.90
20068;DHT22;10194;50.824;7.134;2022-09-27T18:23:58;10.10;99.90
20068;DHT22;10194;50.824;7.134;2022-09-27T18:26:26;10.10;99.90
20068;DHT22;10194;50.824;7.134;2022-09-27T18:28:58;10.00;99.90
20068;DHT22;10194;50.824;7.134;2022-09-27T18:31:26;10.00;99.90
20068;DHT22;10194;50.824;7.134;2022-09-27T18:33:51;10.10;99.90
20068;DHT22;10194;50.824;7.134;2022-09-27T18:36:19;10.10;99.90
20068;DHT22;10194;50.824;7.134;2022-09-27T18:38:53;10.00;99.90
20068;DHT22;10194;50.824;7.134;2022-09-27T18:41:21;10.00;99.90
20068;DHT22;10194;50.824;7.134;2022-09-27T18:43:50;10.00;99.90
20068;DHT22;10194;50.824;7.134;2022-09-27T18:46:21;10.00;99.90
20068;DHT22;10194;50.824;7.134;2022-09-27T18:48:49;10.00;99.90